Time;durP1;ratioP1;P1;durP2;ratioP2;P2;SDS_P1;SDS_P2;PMS_P1;PMS_P2;Temp;Humidity;BMP_temperature;BMP_pressure;BME280_temperature;BME280_humidity;BME280_pressure;Samples;Min_cycle;Max_cycle;Signal;HPM_P1;HPM_P2
2022/10/12 00:01:29;;;;;;;;;9.75;8.00;;;;;16.33;43.11;101850.28;5102856;27;45500;-56
2022/10/12 00:03:54;;;;;;;;;9.00;8.75;;;;;16.31;43.24;101846.78;5102538;27;46128;-56
2022/10/12 00:06:23;;;;;;;;;8.25;6.00;;;;;16.29;43.56;101843.28;5103010;27;45218;-57
2022/10/12 00:08:51;;;;;;;;;7.75;7.25;;;;;16.27;43.40;101847.75;5102866;27;45399;-56
2022/10/12 00:11:20;;;;;;;;;9.75;8.25;;;;;16.25;43.52;101846.00;5102832;27;45165;-57
2022/10/12 00:13:45;;;;;;;;;10.75;10.50;;;;;16.20;43.28;101839.03;5102331;27;46330;-57
2022/10/12 00:16:13;;;;;;;;;9.75;6.50;;;;;16.20;43.15;101845.22;5102705;27;45338;-56
2022/10/12 00:18:38;;;;;;;;;8.25;8.25;;;;;16.18;43.37;101846.16;5102404;27;45342;-55
2022/10/12 00:21:13;;;;;;;;;9.25;8.50;;;;;16.16;43.67;101848.84;5102543;27;45229;-56
2022/10/12 00:23:39;;;;;;;;;9.75;8.50;;;;;16.14;43.22;101847.09;5102569;27;46179;-56
2022/10/12 00:26:08;;;;;;;;;9.25;8.50;;;;;16.12;43.38;101846.28;5102407;27;45347;-56
2022/10/12 00:28:34;;;;;;;;;10.00;8.75;;;;;16.08;43.56;101841.03;5102463;27;45395;-57
2022/10/12 00:31:00;;;;;;;;;9.75;9.00;;;;;16.07;43.41;101849.00;5102405;27;45215;-55
2022/10/12 00:33:29;;;;;;;;;9.25;7.50;;;;;16.05;43.81;101846.41;5102001;27;45476;-56
2022/10/12 00:35:54;;;;;;;;;9.50;8.00;;;;;16.04;43.50;101843.78;5101916;27;45469;-57
2022/10/12 00:38:21;;;;;;;;;11.25;9.25;;;;;16.02;43.48;101850.88;5102410;27;45406;-56
2022/10/12 00:40:46;;;;;;;;;13.50;10.00;;;;;15.99;43.69;101843.00;5101948;27;45455;-56
2022/10/12 00:43:37;;;;;;;;;14.50;11.00;;;;;15.96;43.49;101851.88;5083666;27;46410;-56
2022/10/12 00:46:12;;;;;;;;;13.75;11.75;;;;;15.91;43.67;101838.72;5101970;27;45371;-57
2022/10/12 00:48:38;;;;;;;;;12.50;11.50;;;;;15.90;43.54;101844.91;5101887;27;45382;-56
2022/10/12 00:51:04;;;;;;;;;12.25;10.25;;;;;15.90;43.51;101852.00;5083788;27;46221;-57
2022/10/12 00:53:42;;;;;;;;;13.00;9.75;;;;;15.88;43.97;101852.00;5101932;27;46267;-57
2022/10/12 00:56:17;;;;;;;;;9.50;9.50;;;;;15.84;43.65;101855.63;5083887;27;45300;-57
2022/10/12 00:58:43;;;;;;;;;8.75;7.25;;;;;15.83;43.83;101855.66;5102041;27;45576;-56
2022/10/12 01:01:09;;;;;;;;;10.00;9.00;;;;;15.82;43.63;101856.56;5102045;27;45211;-56
2022/10/12 01:03:35;;;;;;;;;14.50;10.50;;;;;15.80;44.16;101850.38;5082866;27;47322;-56
2022/10/12 01:06:01;;;;;;;;;12.25;10.00;;;;;15.76;43.76;101845.16;5102036;27;45389;-57
2022/10/12 01:08:27;;;;;;;;;12.75;11.00;;;;;15.74;44.05;101846.94;5083565;27;45387;-57
2022/10/12 01:10:53;;;;;;;;;10.75;7.75;;;;;15.73;43.88;101839.88;5101793;27;45531;-56
2022/10/12 01:13:18;;;;;;;;;13.00;9.50;;;;;15.71;44.25;101846.09;5101446;27;45265;-56
2022/10/12 01:15:56;;;;;;;;;11.50;8.50;;;;;15.65;44.06;101831.22;5101741;27;45291;-55
2022/10/12 01:18:32;;;;;;;;;9.75;8.25;;;;;15.62;43.78;101835.69;5101551;27;45145;-57
2022/10/12 01:20:58;;;;;;;;;12.75;9.00;;;;;15.62;44.20;101828.59;5101674;27;45259;-56
2022/10/12 01:23:32;;;;;;;;;13.50;11.25;;;;;15.60;44.22;101827.78;5101262;27;46421;-56
2022/10/12 01:26:26;;;;;;;;;11.50;11.50;;;;;15.57;43.98;101827.81;5083132;27;45430;-57
2022/10/12 01:29:13;;;;;;;;;10.50;10.50;;;;;15.54;44.31;101834.03;5083164;27;45299;-56
2022/10/12 01:31:56;;;;;;;;;14.75;10.00;;;;;15.52;44.37;101833.22;5101083;27;45211;-58
2022/10/12 01:34:59;;;;;;;;;10.00;9.25;;;;;15.50;44.48;101835.00;5101118;27;46244;-55
2022/10/12 01:37:43;;;;;;;;;9.00;9.00;;;;;15.47;44.08;101832.44;5086500;27;45508;-57
2022/10/12 01:40:18;;;;;;;;;9.50;8.75;;;;;15.44;44.26;101835.09;5100617;27;45299;-57
2022/10/12 01:42:45;;;;;;;;;12.75;11.75;;;;;15.42;44.44;101823.66;5101207;27;45309;-57
2022/10/12 01:45:14;;;;;;;;;12.00;9.00;;;;;15.41;44.43;101829.88;5099796;27;46429;-57
2022/10/12 01:47:41;;;;;;;;;13.75;12.25;;;;;15.37;44.16;101826.41;5100601;27;45466;-56
2022/10/12 01:50:11;;;;;;;;;9.50;9.50;;;;;15.34;44.40;101823.78;5082843;27;45405;-57
2022/10/12 01:53:00;;;;;;;;;13.25;11.50;;;;;15.35;44.32;101829.97;5100927;27;45169;-57
2022/10/12 01:55:41;;;;;;;;;11.25;11.25;;;;;15.33;44.33;101826.47;5089822;27;45556;-56
2022/10/12 01:58:09;;;;;;;;;11.50;10.00;;;;;15.31;44.80;101828.25;5101086;27;45473;-57
2022/10/12 02:00:43;;;;;;;;;10.25;9.25;;;;;15.28;44.78;101819.50;5101060;27;45432;-57
2022/10/12 02:03:29;;;;;;;;;9.00;8.50;;;;;15.25;44.56;101824.81;5078843;28;45410;-56
2022/10/12 02:06:18;;;;;;;;;11.50;9.50;;;;;15.22;44.40;101827.53;5089228;27;45183;-57
2022/10/12 02:09:10;;;;;;;;;14.75;11.00;;;;;15.19;44.54;101819.63;5100625;27;45286;-57
2022/10/12 02:11:40;;;;;;;;;10.75;9.25;;;;;15.15;44.71;101815.28;5100779;27;45263;-57
2022/10/12 02:14:18;;;;;;;;;11.75;11.00;;;;;15.17;44.58;101818.78;5100738;27;45559;-56
2022/10/12 02:16:51;;;;;;;;;11.25;10.75;;;;;15.15;45.02;101817.06;5100150;27;45460;-56
2022/10/12 02:19:22;;;;;;;;;9.75;9.50;;;;;15.13;45.13;101814.41;5100901;27;45410;-56
2022/10/12 02:21:51;;;;;;;;;9.25;9.00;;;;;15.10;45.05;101819.78;5100663;27;45428;-57
2022/10/12 02:24:18;;;;;;;;;11.25;9.25;;;;;15.09;45.27;101815.38;5100682;27;45250;-55
2022/10/12 02:26:46;;;;;;;;;13.25;10.00;;;;;15.04;44.74;101807.53;5100448;27;46160;-56
2022/10/12 02:29:30;;;;;;;;;9.75;8.00;;;;;15.03;44.92;101805.78;5082285;27;45309;-56
2022/10/12 02:31:59;;;;;;;;;10.50;10.00;;;;;15.03;44.79;101805.78;5100438;27;45754;-57
2022/10/12 02:34:33;;;;;;;;;9.50;9.50;;;;;14.99;45.02;101797.91;5097511;27;45257;-56
2022/10/12 02:37:11;;;;;;;;;9.75;9.00;;;;;15.00;45.13;101804.94;5069214;28;46146;-56
2022/10/12 02:39:43;;;;;;;;;15.50;10.75;;;;;14.97;44.97;101803.22;5098836;27;45312;-56
2022/10/12 02:42:13;;;;;;;;;13.00;10.00;;;;;14.95;45.24;101803.25;5100574;27;45294;-56
2022/10/12 02:44:41;;;;;;;;;9.00;9.00;;;;;14.94;45.10;101801.50;5082690;27;45346;-56
2022/10/12 02:47:09;;;;;;;;;11.00;9.50;;;;;14.90;45.20;101794.50;5099817;27;45473;-55
2022/10/12 02:49:37;;;;;;;;;11.00;7.75;;;;;14.90;45.29;101802.44;5100317;27;45414;-56
2022/10/12 02:52:05;;;;;;;;;11.00;10.25;;;;;14.88;44.81;101800.69;5102804;27;45212;-56
2022/10/12 02:54:31;;;;;;;;;13.00;10.25;;;;;14.84;44.84;101794.63;5103993;27;45594;-55
2022/10/12 02:56:56;;;;;;;;;15.75;13.50;;;;;14.85;44.89;101798.97;5103764;27;45406;-56
2022/10/12 02:59:22;;;;;;;;;13.50;11.00;;;;;14.84;45.49;101793.72;5103983;27;45310;-56
2022/10/12 03:01:47;;;;;;;;;9.00;9.00;;;;;14.74;44.99;101782.41;5103636;27;45393;-56
2022/10/12 03:04:13;;;;;;;;;10.50;8.75;;;;;14.79;45.20;101791.13;5104008;27;45294;-56
2022/10/12 03:06:38;;;;;;;;;15.25;12.75;;;;;14.76;45.44;101781.47;5102537;27;46188;-55
2022/10/12 03:09:04;;;;;;;;;12.50;9.00;;;;;14.75;45.05;101781.50;5103779;27;45561;-56
2022/10/12 03:11:30;;;;;;;;;10.50;9.00;;;;;14.74;45.14;101785.03;5103722;27;45271;-55
2022/10/12 03:13:56;;;;;;;;;17.00;14.25;;;;;14.72;45.57;101782.44;5103882;27;45213;-55
2022/10/12 03:16:22;;;;;;;;;9.00;8.25;;;;;14.72;45.52;101787.72;5103336;27;45205;-56
2022/10/12 03:18:48;;;;;;;;;12.00;11.25;;;;;14.69;45.39;101785.13;5103470;27;45454;-56
2022/10/12 03:21:13;;;;;;;;;11.00;11.00;;;;;14.68;45.42;101782.47;5103691;27;45300;-56
2022/10/12 03:23:39;;;;;;;;;10.00;9.50;;;;;14.65;45.31;101788.69;5103654;27;45409;-56
2022/10/12 03:26:05;;;;;;;;;11.00;10.25;;;;;14.63;45.62;101780.75;5103367;27;45242;-55
2022/10/12 03:28:31;;;;;;;;;13.25;10.75;;;;;14.61;45.40;101776.38;5103597;27;45405;-56
2022/10/12 03:30:57;;;;;;;;;12.00;11.00;;;;;14.59;46.03;101773.78;5103486;27;45488;-55
2022/10/12 03:33:22;;;;;;;;;12.75;11.75;;;;;14.58;45.61;101776.44;5102946;27;45400;-56
2022/10/12 03:35:47;;;;;;;;;12.25;10.75;;;;;14.56;45.48;101779.09;5103151;27;46686;-55
2022/10/12 03:38:14;;;;;;;;;13.25;11.25;;;;;14.55;45.95;101782.66;5103626;27;45333;-56
2022/10/12 03:40:39;;;;;;;;;16.00;13.00;;;;;14.53;45.69;101786.22;5103396;27;45322;-56
2022/10/12 03:43:05;;;;;;;;;13.75;10.00;;;;;14.53;45.93;101786.22;5103169;27;45419;-56
2022/10/12 03:45:30;;;;;;;;;11.25;11.25;;;;;14.48;45.72;101783.63;5102975;27;45493;-55
2022/10/12 03:47:56;;;;;;;;;10.75;9.75;;;;;14.46;45.63;101786.31;5102907;27;45606;-55
2022/10/12 03:50:21;;;;;;;;;15.25;10.50;;;;;14.45;45.75;101797.78;5103050;27;45312;-55
2022/10/12 03:52:46;;;;;;;;;76.33;66.67;;;;;14.42;46.06;101787.22;5102985;27;45379;-55
2022/10/12 03:55:12;;;;;;;;;12.50;11.25;;;;;14.41;45.80;101795.19;5102840;27;45229;-55
2022/10/12 03:57:38;;;;;;;;;14.25;11.50;;;;;14.35;45.88;101782.03;5103061;27;45450;-55
2022/10/12 04:00:04;;;;;;;;;14.50;12.50;;;;;14.35;46.35;101800.53;5103024;27;45238;-55
2022/10/12 04:02:30;;;;;;;;;14.00;11.75;;;;;14.35;46.15;101797.91;5102215;27;45237;-55
2022/10/12 04:04:55;;;;;;;;;15.50;13.00;;;;;14.33;45.91;101792.63;5102757;27;46305;-55
2022/10/12 04:07:20;;;;;;;;;14.25;13.25;;;;;14.32;46.22;101796.16;5102908;27;45298;-54
2022/10/12 04:09:46;;;;;;;;;10.25;9.25;;;;;14.30;45.91;101792.66;5102784;27;45434;-54
2022/10/12 04:12:12;;;;;;;;;15.75;12.25;;;;;14.29;46.04;101786.50;5102753;27;45456;-54
2022/10/12 04:14:38;;;;;;;;;11.50;9.25;;;;;14.25;45.42;101787.47;5102702;27;45327;-55
2022/10/12 04:17:03;;;;;;;;;16.00;13.75;;;;;14.24;46.39;101787.47;5102316;27;45294;-56
2022/10/12 04:19:28;;;;;;;;;12.50;10.50;;;;;14.23;46.41;101786.59;5102746;27;45314;-55
2022/10/12 04:21:54;;;;;;;;;12.00;10.75;;;;;14.20;46.24;101775.19;5102643;27;45462;-54
2022/10/12 04:24:19;;;;;;;;;14.50;11.25;;;;;14.18;46.35;101780.50;5102486;27;46153;-55
2022/10/12 04:26:44;;;;;;;;;13.25;12.75;;;;;14.18;46.10;101775.19;5102662;27;45316;-53
2022/10/12 04:29:12;;;;;;;;;13.00;11.25;;;;;14.18;46.31;101779.63;5102671;27;45354;-55
2022/10/12 04:31:38;;;;;;;;;12.00;11.75;;;;;14.16;46.49;101781.41;5102154;27;45334;-55
2022/10/12 04:34:03;;;;;;;;;11.50;11.50;;;;;14.12;46.43;101784.09;5102146;27;45229;-55
2022/10/12 04:36:28;;;;;;;;;14.00;12.75;;;;;14.13;46.31;101787.59;5101055;27;45293;-55
2022/10/12 04:38:54;;;;;;;;;16.00;12.25;;;;;14.11;46.23;101785.00;5102634;27;45229;-55
2022/10/12 04:41:19;;;;;;;;;17.75;15.25;;;;;14.11;46.63;101782.34;5102044;27;45211;-55
2022/10/12 04:43:44;;;;;;;;;14.75;12.75;;;;;14.10;46.34;101790.28;5102208;27;45253;-55
2022/10/12 04:46:10;;;;;;;;;17.50;14.00;;;;;14.09;46.68;101797.34;5101882;27;45204;-55
2022/10/12 04:48:36;;;;;;;;;16.50;14.50;;;;;14.08;46.69;101797.38;5102232;27;45400;-57
2022/10/12 04:51:02;;;;;;;;;15.00;13.50;;;;;14.06;46.61;101799.13;5101983;27;45666;-56
2022/10/12 04:53:28;;;;;;;;;16.00;12.25;;;;;14.03;46.46;101800.06;5101912;27;46493;-55
2022/10/12 04:55:53;;;;;;;;;13.75;11.25;;;;;14.02;46.67;101800.94;5101756;27;45359;-54
2022/10/12 04:58:18;;;;;;;;;13.50;12.00;;;;;14.00;46.67;101796.56;5102206;27;45490;-55
2022/10/12 05:00:46;;;;;;;;;10.75;10.00;;;;;14.00;46.71;101801.84;5101876;27;45260;-54
2022/10/12 05:03:12;;;;;;;;;13.75;12.50;;;;;13.98;46.69;101797.44;5101344;27;46369;-54
2022/10/12 05:05:37;;;;;;;;;15.00;12.75;;;;;13.93;46.54;101788.72;5101853;27;45292;-54
2022/10/12 05:08:04;;;;;;;;;12.00;12.00;;;;;13.96;46.37;101801.00;5102004;27;45287;-56
2022/10/12 05:10:29;;;;;;;;;11.50;11.00;;;;;13.94;46.65;101801.03;5101751;27;45568;-56
2022/10/12 05:12:55;;;;;;;;;13.25;12.50;;;;;13.93;46.92;101795.78;5101484;27;45203;-55
2022/10/12 05:15:20;;;;;;;;;14.50;14.00;;;;;13.88;46.88;101782.59;5100840;27;45271;-55
2022/10/12 05:17:46;;;;;;;;;12.00;12.00;;;;;13.89;46.78;101789.63;5101549;27;45674;-55
2022/10/12 05:20:11;;;;;;;;;16.00;12.50;;;;;13.86;46.96;101784.41;5083370;27;45513;-55
2022/10/12 05:22:37;;;;;;;;;15.00;14.00;;;;;13.87;47.10;101803.75;5100334;27;46048;-58
2022/10/12 05:25:03;;;;;;;;;12.50;11.00;;;;;13.84;46.49;101787.97;5092523;27;45339;-58
2022/10/12 05:27:29;;;;;;;;;14.25;13.25;;;;;13.79;47.14;101782.72;5075225;27;45528;-57
2022/10/12 05:29:55;;;;;;;;;15.25;12.25;;;;;13.79;46.71;101791.50;5101135;27;45500;-58
2022/10/12 05:32:20;;;;;;;;;15.75;15.50;;;;;13.79;46.87;101793.28;5086436;27;45371;-59
2022/10/12 05:34:46;;;;;;;;;17.00;14.75;;;;;13.77;46.92;101789.78;5091774;27;45187;-59
2022/10/12 05:37:11;;;;;;;;;16.50;15.00;;;;;13.73;47.03;101791.56;5072595;27;45260;-56
2022/10/12 05:39:36;;;;;;;;;17.00;12.50;;;;;13.70;47.08;101798.66;5100777;27;45378;-59
2022/10/12 05:42:03;;;;;;;;;13.50;12.75;;;;;13.73;47.06;101803.91;5099770;27;45286;-59
2022/10/12 05:44:28;;;;;;;;;16.25;14.50;;;;;13.71;46.92;101795.13;5101166;27;45314;-57
2022/10/12 05:46:53;;;;;;;;;14.50;11.00;;;;;13.70;47.25;101804.81;5100381;27;45419;-57
2022/10/12 05:49:19;;;;;;;;;18.25;16.00;;;;;13.69;47.17;101800.44;5100981;27;45145;-57
2022/10/12 05:51:44;;;;;;;;;13.25;11.75;;;;;13.67;46.91;101793.41;5100834;27;45515;-57
2022/10/12 05:54:10;;;;;;;;;16.00;13.00;;;;;13.67;46.94;101793.41;5097924;27;45242;-57
2022/10/12 05:56:35;;;;;;;;;17.75;13.75;;;;;13.65;47.34;101796.06;5091610;27;45271;-57
2022/10/12 05:59:02;;;;;;;;;16.00;15.00;;;;;13.63;47.01;101789.91;5100481;27;45461;-57
2022/10/12 06:01:27;;;;;;;;;17.00;13.50;;;;;13.64;47.49;101796.97;5100406;27;47163;-58
2022/10/12 06:03:53;;;;;;;;;20.50;16.25;;;;;13.62;47.29;101796.09;5100573;27;45305;-57
2022/10/12 06:06:19;;;;;;;;;13.25;13.25;;;;;13.62;47.09;101802.25;5100809;27;45387;-58
2022/10/12 06:08:45;;;;;;;;;14.25;13.50;;;;;13.60;47.44;101798.75;5100366;27;45505;-58
2022/10/12 06:11:10;;;;;;;;;19.00;16.50;;;;;13.58;47.35;101792.59;5100445;27;46026;-58
2022/10/12 06:13:35;;;;;;;;;17.00;14.50;;;;;13.59;47.20;101798.78;5082363;27;45649;-58
2022/10/12 06:16:01;;;;;;;;;21.75;18.50;;;;;13.57;47.23;101789.97;5090948;27;45434;-59
2022/10/12 06:18:26;;;;;;;;;21.00;18.00;;;;;13.57;47.69;101795.25;5100464;27;45535;-59
2022/10/12 06:20:53;;;;;;;;;21.00;19.50;;;;;13.56;47.26;101791.75;5100400;27;47024;-59
2022/10/12 06:23:20;;;;;;;;;23.25;16.25;;;;;13.56;47.57;101793.50;5100141;27;45305;-58
2022/10/12 06:25:47;;;;;;;;;20.25;18.25;;;;;13.54;47.62;101798.81;5099184;27;45289;-59
2022/10/12 06:28:14;;;;;;;;;19.50;17.00;;;;;13.50;47.45;101794.47;5100197;27;45354;-58
2022/10/12 06:30:39;;;;;;;;;23.00;17.50;;;;;13.52;47.41;101792.69;5081848;27;46197;-58
2022/10/12 06:33:05;;;;;;;;;20.00;16.50;;;;;13.52;47.61;101797.06;5098011;27;45447;-59
2022/10/12 06:35:32;;;;;;;;;20.25;16.00;;;;;13.49;47.54;101795.34;5085290;27;45422;-59
2022/10/12 06:37:57;;;;;;;;;24.25;19.75;;;;;13.50;47.53;101805.03;5100386;27;45223;-60
2022/10/12 06:40:22;;;;;;;;;53.25;42.50;;;;;13.49;47.83;101805.91;5100389;27;45258;-60
2022/10/12 06:42:48;;;;;;;;;24.75;20.00;;;;;13.46;47.70;101805.94;5100236;27;45169;-59
2022/10/12 06:45:14;;;;;;;;;24.25;20.50;;;;;13.46;48.02;101805.94;5100571;27;45225;-58
2022/10/12 06:47:40;;;;;;;;;26.25;19.25;;;;;13.49;47.88;101811.19;5082304;27;45415;-59
2022/10/12 06:50:06;;;;;;;;;19.00;17.00;;;;;13.48;48.00;101817.34;5079954;28;45220;-59
2022/10/12 06:52:32;;;;;;;;;21.75;19.00;;;;;13.48;48.01;101817.34;5079761;27;45539;-59
2022/10/12 06:54:57;;;;;;;;;29.25;25.50;;;;;13.49;47.75;101813.81;5061705;28;45396;-59
2022/10/12 06:57:22;;;;;;;;;22.00;17.00;;;;;13.47;48.12;101808.56;5079546;28;47351;-59
2022/10/12 06:59:48;;;;;;;;;19.75;18.00;;;;;13.47;47.82;101810.31;5091397;27;46098;-59
2022/10/12 07:02:13;;;;;;;;;18.50;17.50;;;;;13.49;47.78;101822.59;5081761;27;45407;-58
2022/10/12 07:04:38;;;;;;;;;21.00;15.50;;;;;13.51;48.07;101822.63;5079832;28;45275;-59
2022/10/12 07:07:04;;;;;;;;;20.75;18.75;;;;;13.51;48.21;101824.38;5079579;28;45261;-59
2022/10/12 07:09:29;;;;;;;;;24.50;19.00;;;;;13.53;48.11;101827.88;5079691;27;46000;-59
2022/10/12 07:11:54;;;;;;;;;28.00;24.50;;;;;13.54;48.22;101833.13;5079520;28;45372;-58
2022/10/12 07:14:20;;;;;;;;;26.75;20.25;;;;;13.56;48.35;101836.66;5061812;28;45412;-59
2022/10/12 07:16:46;;;;;;;;;23.50;20.00;;;;;13.55;48.45;101839.31;5079357;27;45390;-59
2022/10/12 07:19:12;;;;;;;;;29.25;21.00;;;;;13.57;47.94;101835.78;5079467;28;46129;-58
2022/10/12 07:21:37;;;;;;;;;22.00;19.00;;;;;13.60;48.33;101833.09;5079392;27;45240;-59
2022/10/12 07:24:03;;;;;;;;;27.25;22.00;;;;;13.63;48.16;101845.38;5087879;27;45495;-59
2022/10/12 07:26:28;;;;;;;;;23.00;21.00;;;;;13.65;48.54;101840.97;5084596;27;45300;-59
2022/10/12 07:28:53;;;;;;;;;19.25;17.75;;;;;13.68;48.73;101837.44;5094535;27;46133;-59
2022/10/12 07:31:19;;;;;;;;;19.75;19.00;;;;;13.71;48.57;101845.31;5098363;27;45184;-59
2022/10/12 07:33:44;;;;;;;;;20.50;19.00;;;;;13.73;48.32;101843.53;5090161;27;45228;-59
2022/10/12 07:36:09;;;;;;;;;14.25;13.75;;;;;13.76;48.59;101846.13;5095261;27;45432;-59
2022/10/12 07:38:35;;;;;;;;;20.00;19.25;;;;;13.76;48.26;101838.22;5082537;28;45336;-59
2022/10/12 07:41:02;;;;;;;;;21.00;18.75;;;;;13.82;48.58;101846.06;5082714;27;45231;-59
2022/10/12 07:43:29;;;;;;;;;20.25;17.00;;;;;13.85;48.66;101854.00;5082860;28;45256;-59
2022/10/12 07:45:54;;;;;;;;;25.25;19.50;;;;;13.86;48.44;101850.47;5082389;27;45474;-59
2022/10/12 07:48:20;;;;;;;;;20.50;18.75;;;;;13.92;48.36;101855.69;5082591;27;45273;-59
2022/10/12 07:50:45;;;;;;;;;24.50;24.50;;;;;13.95;48.77;101858.28;5082574;27;45321;-59
2022/10/12 07:53:11;;;;;;;;;22.50;17.75;;;;;14.00;48.68;101858.25;5082714;28;45422;-59
2022/10/12 07:55:36;;;;;;;;;23.00;20.75;;;;;14.04;48.64;101859.94;5082585;27;45204;-58
2022/10/12 07:58:02;;;;;;;;;22.50;20.50;;;;;14.11;48.66;101866.94;5082641;27;45970;-59
2022/10/12 08:00:28;;;;;;;;;28.25;26.75;;;;;14.16;48.38;101868.63;5082506;28;45162;-59
2022/10/12 08:02:53;;;;;;;;;30.25;23.00;;;;;14.21;48.71;101869.47;5082202;27;45343;-59
2022/10/12 08:05:20;;;;;;;;;27.75;24.75;;;;;14.27;48.96;101870.25;5064146;28;45248;-59
2022/10/12 08:07:47;;;;;;;;;28.75;24.00;;;;;14.32;49.00;101867.56;5082557;27;46286;-59
2022/10/12 08:10:12;;;;;;;;;25.00;22.25;;;;;14.37;48.50;101876.31;5063577;28;45425;-59
2022/10/12 08:12:38;;;;;;;;;27.75;24.50;;;;;14.38;48.56;101863.97;5082440;27;45527;-59
2022/10/12 08:15:04;;;;;;;;;23.75;21.75;;;;;14.42;48.52;101861.25;5082192;27;45309;-59
2022/10/12 08:17:29;;;;;;;;;27.75;23.00;;;;;14.50;48.59;101863.81;5082031;27;45404;-59
2022/10/12 08:19:54;;;;;;;;;26.50;23.75;;;;;14.57;48.70;101876.06;5082290;27;45294;-59
2022/10/12 08:22:20;;;;;;;;;35.00;25.50;;;;;14.62;48.52;101876.00;5082359;28;45313;-59
2022/10/12 08:24:45;;;;;;;;;29.00;26.00;;;;;14.67;48.94;101881.28;5090950;27;45499;-59
2022/10/12 08:27:10;;;;;;;;;28.00;23.00;;;;;14.72;48.75;101882.09;5102630;27;46053;-58
2022/10/12 08:29:38;;;;;;;;;30.25;26.00;;;;;14.78;48.79;101880.22;5102375;27;45254;-59
2022/10/12 08:32:03;;;;;;;;;32.75;27.50;;;;;14.82;48.89;101878.44;5102128;27;45162;-59
2022/10/12 08:34:29;;;;;;;;;25.50;23.00;;;;;14.90;48.98;101883.59;5102812;27;45181;-59
2022/10/12 08:36:55;;;;;;;;;31.75;24.25;;;;;14.95;48.90;101879.13;5102097;27;46190;-59
2022/10/12 08:39:20;;;;;;;;;30.50;25.25;;;;;15.00;49.25;101877.28;5102428;27;45191;-59
2022/10/12 08:41:58;;;;;;;;;29.50;25.25;;;;;15.09;48.70;101876.25;5102370;27;45643;-59
2022/10/12 08:44:39;;;;;;;;;27.75;21.50;;;;;15.18;48.80;101877.91;5102468;27;45318;-59
2022/10/12 08:47:13;;;;;;;;;32.25;26.25;;;;;15.25;48.83;101872.47;5101597;27;45425;-59
2022/10/12 08:49:42;;;;;;;;;27.00;21.50;;;;;15.35;48.99;101875.00;5083840;27;45438;-59
2022/10/12 08:52:20;;;;;;;;;26.00;25.25;;;;;15.43;48.67;101870.44;5102344;27;45302;-59
2022/10/12 08:54:45;;;;;;;;;30.00;25.75;;;;;15.52;49.15;101877.34;5101876;27;45306;-59
2022/10/12 08:57:18;;;;;;;;;32.25;25.50;;;;;15.63;49.00;101874.53;5083739;27;48555;-59
2022/10/12 08:59:46;;;;;;;;;31.00;24.25;;;;;15.71;49.18;101878.81;5101881;27;45275;-59
2022/10/12 09:02:17;;;;;;;;;24.75;20.75;;;;;15.82;49.03;101891.88;5101844;27;45253;-59
2022/10/12 09:05:25;;;;;;;;;27.25;22.50;;;;;15.93;48.65;101895.22;5101751;27;45531;-59
2022/10/12 09:08:01;;;;;;;;;25.00;24.50;;;;;16.04;49.01;101897.66;5018608;28;46230;-59
2022/10/12 09:10:59;;;;;;;;;28.25;21.75;;;;;16.17;48.97;101897.44;5094397;27;45244;-59
2022/10/12 09:13:52;;;;;;;;;29.25;23.75;;;;;16.29;48.79;101880.41;5072288;27;45502;-59
2022/10/12 09:16:31;;;;;;;;;25.25;22.50;;;;;16.38;48.90;101880.25;5101485;27;45161;-59
2022/10/12 09:19:13;;;;;;;;;32.50;22.50;;;;;16.51;49.00;101880.84;5101537;27;46394;-59
2022/10/12 09:21:41;;;;;;;;;24.75;22.00;;;;;16.61;48.58;101871.78;5101720;27;45457;-59
2022/10/12 09:24:15;;;;;;;;;12.50;11.50;;;;;16.72;48.80;101875.06;5101472;27;45285;-59
2022/10/12 09:26:41;;;;;;;;;20.00;19.00;;;;;16.83;48.65;101877.50;5101507;27;45490;-59
2022/10/12 09:29:33;;;;;;;;;24.00;21.75;;;;;16.97;48.78;101879.88;5101291;27;45327;-59
2022/10/12 09:32:28;;;;;;;;;28.25;23.00;;;;;17.09;48.64;101876.03;5097044;27;45358;-59
2022/10/12 09:34:54;;;;;;;;;24.50;22.75;;;;;17.20;48.46;101874.00;5101765;27;45228;-59
2022/10/12 09:37:26;;;;;;;;;28.50;26.75;;;;;17.31;48.50;101867.59;5101117;27;45344;-59
2022/10/12 09:39:52;;;;;;;;;23.50;21.25;;;;;17.42;48.44;101867.31;5101359;27;45314;-59
2022/10/12 09:42:18;;;;;;;;;28.75;23.00;;;;;17.51;48.55;101859.13;5101133;27;45316;-56
2022/10/12 09:44:47;;;;;;;;;30.25;26.75;;;;;17.60;48.48;101856.22;5083088;27;45828;-57
2022/10/12 09:47:23;;;;;;;;;30.50;24.75;;;;;17.68;48.46;101856.00;5100986;27;45405;-57
2022/10/12 09:49:57;;;;;;;;;30.25;25.00;;;;;17.79;48.32;101853.94;5100841;27;46991;-57
2022/10/12 09:52:40;;;;;;;;;25.00;23.00;;;;;17.87;48.34;101851.97;5101233;27;45296;-57
2022/10/12 09:55:22;;;;;;;;;25.50;21.25;;;;;17.98;48.20;101849.00;5101110;27;45240;-58
2022/10/12 09:57:56;;;;;;;;;24.00;20.75;;;;;18.04;48.18;101834.69;5101191;27;45212;-58
2022/10/12 10:00:24;;;;;;;;;29.25;24.00;;;;;18.16;48.09;101841.44;5100404;27;46974;-58
2022/10/12 10:02:51;;;;;;;;;29.75;23.00;;;;;18.22;48.19;101840.41;5100461;27;45413;-58
2022/10/12 10:05:33;;;;;;;;;26.00;18.75;;;;;18.31;48.06;101851.66;5100696;27;45413;-58
2022/10/12 10:08:13;;;;;;;;;23.50;21.00;;;;;18.42;47.95;101847.81;5100754;27;45324;-58
2022/10/12 10:10:49;;;;;;;;;24.00;18.25;;;;;18.48;47.63;101847.63;5100213;27;45427;-58
2022/10/12 10:13:15;;;;;;;;;23.75;21.00;;;;;18.57;47.85;101844.69;5082774;27;45485;-58
2022/10/12 10:15:44;;;;;;;;;25.25;22.50;;;;;18.64;47.80;101848.00;5100814;27;45256;-58
2022/10/12 10:18:27;;;;;;;;;26.75;21.00;;;;;18.73;47.81;101842.44;5100571;27;45475;-59
2022/10/12 10:20:58;;;;;;;;;20.50;15.75;;;;;18.80;48.06;101837.78;5100586;27;46291;-59
2022/10/12 10:23:41;;;;;;;;;16.75;14.50;;;;;18.87;47.65;101841.09;5100647;27;45393;-58
2022/10/12 10:26:15;;;;;;;;;20.25;17.25;;;;;18.93;47.74;101841.84;5100504;27;45378;-58
2022/10/12 10:28:43;;;;;;;;;21.50;17.50;;;;;19.00;47.36;101845.16;5100543;27;45247;-58
2022/10/12 10:31:11;;;;;;;;;21.75;17.75;;;;;19.06;47.50;101839.63;5100130;27;46098;-58
2022/10/12 10:33:37;;;;;;;;;17.75;16.75;;;;;19.12;47.61;101828.78;5100120;27;45235;-59
2022/10/12 10:36:11;;;;;;;;;22.50;18.00;;;;;19.20;47.72;101828.53;5100661;27;45255;-58
2022/10/12 10:38:58;;;;;;;;;19.25;18.25;;;;;19.27;47.35;101829.19;5100407;27;45172;-58
2022/10/12 10:41:35;;;;;;;;;18.75;17.00;;;;;19.36;47.34;101834.22;5081629;27;46439;-58
2022/10/12 10:44:01;;;;;;;;;22.50;18.25;;;;;19.43;47.78;101830.44;5100205;27;45237;-57
2022/10/12 10:46:30;;;;;;;;;20.75;16.75;;;;;19.52;47.05;101829.25;5100130;27;45353;-57
2022/10/12 10:49:06;;;;;;;;;21.75;17.50;;;;;19.61;47.52;101820.91;5100187;27;45524;-58
2022/10/12 10:51:39;;;;;;;;;22.25;17.50;;;;;19.69;47.16;101820.63;5099941;27;45343;-58
2022/10/12 10:54:27;;;;;;;;;15.00;14.25;;;;;19.82;47.43;101829.06;5100159;27;45437;-57
2022/10/12 10:57:00;;;;;;;;;26.25;21.00;;;;;19.92;47.09;101829.63;5100031;27;45357;-57
2022/10/12 10:59:56;;;;;;;;;17.00;14.75;;;;;20.05;47.14;101819.38;5099224;27;45627;-57
2022/10/12 11:02:41;;;;;;;;;19.00;16.25;;;;;20.17;47.00;101823.41;5098378;27;48294;-58
2022/10/12 11:05:16;;;;;;;;;18.50;14.75;;;;;20.32;46.82;101821.97;5100236;27;45417;-58
2022/10/12 11:07:52;;;;;;;;;19.50;17.00;;;;;20.42;46.90;101818.88;5100096;27;45520;-58
2022/10/12 11:10:30;;;;;;;;;17.00;15.25;;;;;20.57;47.27;101820.06;5099995;27;45403;-57
2022/10/12 11:13:05;;;;;;;;;23.00;19.00;;;;;20.71;47.28;101822.22;5101758;27;45231;-58
2022/10/12 11:15:41;;;;;;;;;19.00;18.00;;;;;20.84;46.88;101827.09;5103665;27;45211;-59
2022/10/12 11:18:17;;;;;;;;;21.75;16.75;;;;;21.01;46.70;101829.09;5084859;27;45296;-59
2022/10/12 11:20:57;;;;;;;;;16.25;13.75;;;;;21.16;47.08;101819.56;5103392;27;45263;-58
2022/10/12 11:23:31;;;;;;;;;17.25;14.00;;;;;21.31;46.78;101821.59;5103377;27;45227;-58